Time;durP1;ratioP1;P1;durP2;ratioP2;P2;SDS_P1;SDS_P2;PMS_P1;PMS_P2;Temp;Humidity;BMP_temperature;BMP_pressure;BME280_temperature;BME280_humidity;BME280_pressure;Samples;Min_cycle;Max_cycle;Signal;HPM_P1;HPM_P2
2023/07/17 00:02:13;;;;;;;19.40;11.05;;;;;;;23.99;66.08;94238.38;5063296;28;20021;-84
2023/07/17 00:04:39;;;;;;;14.43;10.02;;;;;;;23.93;66.28;94246.16;5063215;28;20021;-85
2023/07/17 00:07:04;;;;;;;16.65;10.88;;;;;;;23.98;66.55;94248.50;5063097;28;20311;-83
2023/07/17 00:09:30;;;;;;;16.52;10.63;;;;;;;24.01;66.53;94244.22;5061858;28;20070;-83
2023/07/17 00:11:56;;;;;;;21.35;12.05;;;;;;;23.98;67.06;94236.84;5062950;28;20315;-82
2023/07/17 00:14:21;;;;;;;24.40;12.13;;;;;;;24.04;67.05;94246.19;5061735;28;20017;-83
2023/07/17 00:16:47;;;;;;;23.55;12.90;;;;;;;23.95;67.36;94237.59;5062914;28;20017;-83
2023/07/17 00:19:12;;;;;;;17.27;10.98;;;;;;;23.90;67.05;94246.94;5061834;28;20105;-84
2023/07/17 00:21:38;;;;;;;22.20;12.27;;;;;;;23.75;68.14;94242.63;5061780;28;20386;-83
2023/07/17 00:24:03;;;;;;;21.08;11.52;;;;;;;23.74;68.56;94241.84;5063072;28;20044;-84
2023/07/17 00:26:30;;;;;;;16.90;12.02;;;;;;;23.77;68.01;94237.59;5064740;28;20040;-84
2023/07/17 00:29:23;;;;;;;18.05;12.63;;;;;;;23.77;68.04;94243.03;5067249;28;20222;-84
2023/07/17 00:31:49;;;;;;;16.75;11.73;;;;;;;23.71;68.41;94256.25;5065765;28;20025;-83
2023/07/17 00:34:14;;;;;;;21.48;11.48;;;;;;;23.65;68.94;94241.47;5067387;28;20066;-84
2023/07/17 00:36:40;;;;;;;21.40;10.90;;;;;;;23.61;68.71;94246.09;5067113;28;20020;-84
2023/07/17 00:39:06;;;;;;;16.75;11.38;;;;;;;23.62;68.67;94264.00;5066918;28;20315;-84
2023/07/17 00:41:31;;;;;;;17.35;11.27;;;;;;;23.56;68.90;94260.09;5066885;28;20033;-84
2023/07/17 00:43:56;;;;;;;14.98;10.68;;;;;;;23.57;69.07;94267.09;5066774;28;20027;-84
2023/07/17 00:46:22;;;;;;;17.10;11.25;;;;;;;23.49;69.51;94271.75;5066778;28;20197;-84
2023/07/17 00:48:48;;;;;;;21.52;11.73;;;;;;;23.27;70.43;94268.19;5066763;28;20029;-83
2023/07/17 00:51:14;;;;;;;23.20;12.38;;;;;;;23.09;71.40;94267.38;5067004;28;20067;-83
2023/07/17 00:53:39;;;;;;;16.05;12.18;;;;;;;22.91;72.16;94267.25;5066477;28;20108;-83
2023/07/17 00:56:05;;;;;;;23.33;11.82;;;;;;;22.84;72.88;94270.72;5066648;28;20040;-84
2023/07/17 00:58:30;;;;;;;21.05;12.68;;;;;;;22.87;72.53;94264.50;5066442;28;20036;-84
2023/07/17 01:00:56;;;;;;;18.00;11.45;;;;;;;22.88;72.44;94260.66;5066443;28;20082;-83
2023/07/17 01:03:22;;;;;;;19.55;12.43;;;;;;;22.84;73.15;94260.63;5066173;28;20025;-83
2023/07/17 01:05:48;;;;;;;16.40;11.27;;;;;;;22.90;73.28;94258.34;5066204;28;20021;-84
2023/07/17 01:08:15;;;;;;;18.60;12.02;;;;;;;22.89;72.96;94262.19;5065040;28;20040;-83
2023/07/17 01:10:41;;;;;;;22.60;12.40;;;;;;;22.94;72.87;94267.28;5066195;28;20063;-84
2023/07/17 01:13:10;;;;;;;15.75;11.85;;;;;;;22.94;73.02;94258.31;5066123;28;20215;-83
2023/07/17 01:15:36;;;;;;;16.27;11.63;;;;;;;22.93;73.00;94264.94;5065060;28;20021;-83
2023/07/17 01:18:02;;;;;;;20.58;12.15;;;;;;;22.95;72.63;94262.63;5066122;28;20017;-83
2023/07/17 01:20:28;;;;;;;19.70;12.82;;;;;;;22.89;73.27;94267.63;5066023;28;20035;-83
2023/07/17 01:22:57;;;;;;;16.73;11.65;;;;;;;22.85;73.32;94261.41;5065692;28;20024;-83
2023/07/17 01:25:23;;;;;;;17.25;11.90;;;;;;;22.92;73.27;94269.59;5066123;28;20218;-83
2023/07/17 01:27:48;;;;;;;19.10;12.35;;;;;;;22.93;73.45;94262.22;5064782;28;20092;-83
2023/07/17 01:30:14;;;;;;;19.90;13.35;;;;;;;22.92;73.40;94269.59;5065983;28;20036;-83
2023/07/17 01:32:40;;;;;;;24.40;12.98;;;;;;;22.87;73.70;94269.94;5065805;28;20054;-83
2023/07/17 01:35:06;;;;;;;18.55;11.40;;;;;;;22.88;73.88;94274.25;5065830;28;20044;-84
2023/07/17 01:37:32;;;;;;;20.02;12.45;;;;;;;22.90;73.97;94274.63;5064947;28;20017;-83
2023/07/17 01:39:57;;;;;;;23.08;12.93;;;;;;;22.89;73.68;94272.28;5064863;28;20353;-84
2023/07/17 01:42:22;;;;;;;18.05;13.00;;;;;;;22.82;73.87;94270.34;5064573;28;20350;-83
2023/07/17 01:44:48;;;;;;;21.13;12.38;;;;;;;22.81;73.88;94271.47;5065190;28;20021;-82
2023/07/17 01:47:13;;;;;;;16.85;11.75;;;;;;;22.80;74.07;94264.50;5065307;28;20035;-83
2023/07/17 01:49:40;;;;;;;19.08;12.65;;;;;;;22.81;74.18;94271.47;5064471;28;20318;-82
2023/07/17 01:52:08;;;;;;;18.90;11.60;;;;;;;22.73;74.12;94270.66;5065641;28;20095;-82
2023/07/17 01:54:34;;;;;;;21.73;13.48;;;;;;;22.62;74.77;94276.03;5065334;28;20057;-83
2023/07/17 01:57:00;;;;;;;21.33;12.88;;;;;;;22.60;74.74;94278.34;5098010;28;20036;-83
2023/07/17 01:59:25;;;;;;;19.05;12.63;;;;;;;22.64;74.92;94273.72;5065640;28;20259;-83
2023/07/17 02:01:50;;;;;;;19.88;12.40;;;;;;;22.61;75.00;94274.50;5065448;28;20384;-83
2023/07/17 02:04:16;;;;;;;18.15;12.10;;;;;;;22.59;74.96;94276.81;5064379;28;20367;-83
2023/07/17 02:06:41;;;;;;;22.67;13.02;;;;;;;22.56;75.45;94282.22;5065419;28;20020;-83
2023/07/17 02:09:07;;;;;;;22.05;13.32;;;;;;;22.56;75.63;94287.66;5065459;28;20057;-83
2023/07/17 02:11:33;;;;;;;19.75;13.38;;;;;;;22.45;76.29;94293.03;5065180;28;20017;-84
2023/07/17 02:13:59;;;;;;;24.63;14.13;;;;;;;22.36;76.68;94287.13;5065178;28;20051;-84
2023/07/17 02:16:24;;;;;;;17.90;13.13;;;;;;;22.26;77.02;94296.75;5065269;28;20032;-84
2023/07/17 02:18:49;;;;;;;19.92;12.43;;;;;;;22.19;77.31;94294.75;5065093;28;20021;-84
2023/07/17 02:21:15;;;;;;;19.77;11.93;;;;;;;22.09;77.71;94291.97;5065133;28;20020;-84
2023/07/17 02:23:41;;;;;;;25.88;12.60;;;;;;;22.02;77.90;94279.88;5063856;28;20032;-84
2023/07/17 02:26:09;;;;;;;20.63;12.90;;;;;;;21.97;78.42;94284.88;5064771;28;20021;-84
2023/07/17 02:28:34;;;;;;;22.67;13.98;;;;;;;21.92;78.65;94282.50;5063650;28;20047;-84
2023/07/17 02:31:00;;;;;;;25.88;13.23;;;;;;;21.90;78.36;94284.81;5064788;28;20017;-84
2023/07/17 02:33:25;;;;;;;19.67;13.07;;;;;;;21.92;78.68;94288.72;5064825;28;20036;-83
2023/07/17 02:35:51;;;;;;;21.05;13.50;;;;;;;21.94;78.36;94280.19;5064862;28;20020;-83
2023/07/17 02:38:16;;;;;;;18.70;12.85;;;;;;;21.95;78.32;94287.19;5064965;28;20021;-83
2023/07/17 02:40:42;;;;;;;22.65;12.50;;;;;;;21.91;78.20;94284.44;5064561;28;20105;-83
2023/07/17 02:43:09;;;;;;;23.75;13.30;;;;;;;21.92;77.91;94286.00;5064602;28;20027;-83
2023/07/17 02:45:36;;;;;;;18.73;12.68;;;;;;;21.92;77.95;94296.06;5064532;28;20028;-86
2023/07/17 02:48:01;;;;;;;16.98;13.25;;;;;;;21.89;77.84;94304.97;5064389;28;20029;-86
2023/07/17 02:50:26;;;;;;;24.80;13.73;;;;;;;21.83;78.01;94293.66;5063770;28;20028;-86
2023/07/17 02:52:52;;;;;;;16.77;12.52;;;;;;;21.82;78.42;94284.75;5064530;28;20021;-86
2023/07/17 02:55:18;;;;;;;24.10;13.85;;;;;;;21.78;78.79;94300.22;5063281;28;20064;-87
2023/07/17 02:57:43;;;;;;;32.67;13.35;;;;;;;21.78;78.79;94294.78;5063244;28;20021;-87
2023/07/17 03:00:11;;;;;;;25.50;13.60;;;;;;;21.81;78.68;94295.97;5064549;28;20223;-87
2023/07/17 03:02:39;;;;;;;22.60;12.23;;;;;;;21.88;78.69;94314.25;5063138;28;20067;-85
2023/07/17 03:05:04;;;;;;;22.25;12.73;;;;;;;21.92;78.59;94304.19;5064323;28;20032;-85
2023/07/17 03:07:32;;;;;;;22.08;13.63;;;;;;;21.97;78.23;94309.31;5063937;28;20021;-85
2023/07/17 03:09:57;;;;;;;21.33;13.10;;;;;;;21.92;78.26;94309.63;5062909;28;20016;-85
2023/07/17 03:12:23;;;;;;;18.15;12.80;;;;;;;21.92;78.02;94312.34;5064025;28;20360;-84
2023/07/17 03:14:49;;;;;;;21.67;13.07;;;;;;;21.94;77.43;94299.19;5063833;28;20020;-84
2023/07/17 03:17:14;;;;;;;23.33;12.43;;;;;;;21.97;77.27;94306.59;5064267;28;20089;-84
2023/07/17 03:19:40;;;;;;;17.05;11.43;;;;;;;21.92;76.89;94301.50;5063947;28;20025;-85
2023/07/17 03:22:05;;;;;;;22.00;11.57;;;;;;;21.90;76.60;94318.16;5063741;28;20330;-85
2023/07/17 03:24:31;;;;;;;38.72;12.40;;;;;;;21.90;75.53;94309.22;5063764;28;20020;-84
2023/07/17 03:26:58;;;;;;;17.10;12.18;;;;;;;21.78;76.08;94311.06;5063908;28;20116;-80
2023/07/17 03:29:24;;;;;;;16.27;11.90;;;;;;;21.73;76.27;94313.34;5063638;28;20108;-84
2023/07/17 03:31:50;;;;;;;19.10;12.85;;;;;;;21.69;76.81;94313.28;5063659;28;20017;-83
2023/07/17 03:34:16;;;;;;;18.58;13.15;;;;;;;21.70;77.01;94320.28;5063850;28;20027;-83
2023/07/17 03:36:41;;;;;;;21.88;11.98;;;;;;;21.71;77.60;94321.84;5063671;28;20028;-83
2023/07/17 03:39:06;;;;;;;17.40;12.15;;;;;;;21.75;77.53;94321.88;5063640;28;20099;-83
2023/07/17 03:41:32;;;;;;;21.02;12.57;;;;;;;21.77;77.40;94323.06;5063549;28;20036;-83
2023/07/17 03:43:59;;;;;;;17.58;11.43;;;;;;;21.79;77.35;94320.75;5063504;28;20021;-83
2023/07/17 03:46:25;;;;;;;21.42;12.48;;;;;;;21.81;77.64;94321.16;5063611;28;20334;-83
2023/07/17 03:48:50;;;;;;;21.55;12.73;;;;;;;21.82;77.58;94325.44;5063545;28;20096;-83
2023/07/17 03:51:16;;;;;;;20.08;12.38;;;;;;;21.84;77.41;94331.28;5063552;28;20021;-83
2023/07/17 03:53:41;;;;;;;20.00;12.95;;;;;;;21.86;77.34;94330.91;5063192;28;20041;-83
2023/07/17 03:56:07;;;;;;;20.00;13.25;;;;;;;21.90;77.39;94333.66;5063278;28;20026;-83
2023/07/17 03:58:32;;;;;;;20.33;13.45;;;;;;;21.92;77.70;94332.13;5063105;28;20381;-82
2023/07/17 04:00:58;;;;;;;30.48;12.85;;;;;;;21.94;77.80;94337.16;5062641;28;20319;-83
2023/07/17 04:03:23;;;;;;;15.00;12.77;;;;;;;21.93;78.02;94333.69;5063012;28;20096;-84
2023/07/17 04:05:49;;;;;;;21.00;13.25;;;;;;;21.98;78.11;94340.69;5063267;28;20024;-83
2023/07/17 04:08:15;;;;;;;23.77;13.88;;;;;;;22.03;78.13;94341.13;5063322;28;20028;-83
2023/07/17 04:10:40;;;;;;;20.20;13.23;;;;;;;22.07;78.42;94337.69;5062954;28;20063;-83
2023/07/17 04:13:06;;;;;;;22.38;13.88;;;;;;;22.11;78.40;94338.50;5063035;28;20028;-83
2023/07/17 04:15:34;;;;;;;27.67;13.63;;;;;;;22.15;78.46;94339.31;5063244;28;20020;-83
2023/07/17 04:18:00;;;;;;;24.80;13.73;;;;;;;22.20;78.32;94341.66;5063047;28;20021;-83
2023/07/17 04:20:25;;;;;;;27.75;14.05;;;;;;;22.25;78.04;94338.66;5062842;28;20107;-83
2023/07/17 04:22:51;;;;;;;25.38;13.80;;;;;;;22.33;77.89;94336.78;5063007;28;20021;-82
2023/07/17 04:25:16;;;;;;;19.10;13.68;;;;;;;22.35;76.93;94337.97;5063290;28;20025;-82
2023/07/17 04:27:42;;;;;;;30.27;14.88;;;;;;;22.39;76.64;94349.63;5063201;28;20021;-82
2023/07/17 04:30:08;;;;;;;24.70;13.80;;;;;;;22.42;76.17;94356.22;5062818;28;20032;-82
2023/07/17 04:32:34;;;;;;;21.80;14.23;;;;;;;22.41;75.78;94347.31;5062900;28;20021;-82
2023/07/17 04:34:59;;;;;;;23.33;13.60;;;;;;;22.38;75.08;94355.44;5062974;28;20092;-82
2023/07/17 04:37:25;;;;;;;22.23;13.50;;;;;;;22.42;74.84;94348.09;5062858;28;20076;-82
2023/07/17 04:39:50;;;;;;;21.08;12.30;;;;;;;22.41;73.89;94357.41;5062555;28;20392;-81
2023/07/17 04:42:16;;;;;;;27.63;13.07;;;;;;;22.44;72.96;94346.53;5063072;28;20025;-82
2023/07/17 04:44:43;;;;;;;20.95;12.52;;;;;;;22.46;72.20;94354.31;5063013;28;20021;-82
2023/07/17 04:47:10;;;;;;;23.58;13.15;;;;;;;22.48;72.44;94362.88;5062866;28;20024;-82
2023/07/17 04:49:35;;;;;;;17.63;12.45;;;;;;;22.53;71.79;94369.88;5061505;28;20021;-81
2023/07/17 04:52:01;;;;;;;17.63;11.75;;;;;;;22.55;73.05;94362.94;5061832;28;20378;-83
2023/07/17 04:54:27;;;;;;;17.35;12.85;;;;;;;22.59;72.55;94362.94;5063053;28;20056;-83
2023/07/17 04:56:52;;;;;;;21.33;12.23;;;;;;;22.60;71.60;94365.28;5062754;28;20028;-83
2023/07/17 04:59:19;;;;;;;35.38;13.20;;;;;;;22.65;71.32;94366.88;5064142;28;20055;-83
2023/07/17 05:01:44;;;;;;;23.20;12.27;;;;;;;22.72;70.59;94363.44;5062902;28;20032;-83
2023/07/17 05:04:10;;;;;;;21.58;13.32;;;;;;;22.74;70.42;94364.63;5062674;28;20216;-83
2023/07/17 05:09:41;;;;;;;16.88;11.93;;;;;;;22.79;69.96;94361.53;5062511;28;20071;-83
2023/07/17 05:12:07;;;;;;;19.50;12.43;;;;;;;22.83;70.88;94365.03;5061476;28;20021;-83
2023/07/17 05:14:32;;;;;;;20.95;12.45;;;;;;;22.86;69.92;94373.59;5066277;28;20025;-83
2023/07/17 05:16:58;;;;;;;19.17;12.05;;;;;;;22.92;69.85;94375.59;5066198;28;20025;-82
2023/07/17 05:19:23;;;;;;;20.38;13.55;;;;;;;23.01;69.62;94367.91;5066103;28;20059;-82
2023/07/17 05:21:49;;;;;;;23.73;11.93;;;;;;;23.08;69.08;94377.25;5065968;28;20048;-82
2023/07/17 05:24:14;;;;;;;24.02;12.13;;;;;;;23.13;69.25;94382.34;5064263;28;20031;-82
2023/07/17 05:26:40;;;;;;;25.45;13.07;;;;;;;23.19;68.78;94375.38;5064460;28;20077;-82
2023/07/17 05:29:05;;;;;;;28.25;14.13;;;;;;;23.25;68.30;94389.41;5064189;28;20021;-82
2023/07/17 05:31:31;;;;;;;21.17;12.25;;;;;;;23.25;67.20;94387.44;5063899;28;20021;-84
2023/07/17 05:33:56;;;;;;;23.55;11.32;;;;;;;23.28;67.14;94380.47;5062619;28;20052;-83
2023/07/17 05:36:22;;;;;;;19.25;11.38;;;;;;;23.35;66.97;94386.72;5062934;28;20029;-82
2023/07/17 05:38:48;;;;;;;28.50;13.20;;;;;;;23.42;66.72;94381.31;5065251;28;20084;-82
2023/07/17 05:41:13;;;;;;;26.80;11.88;;;;;;;23.46;65.91;94391.44;5065790;28;20029;-82
2023/07/17 05:43:39;;;;;;;30.35;12.07;;;;;;;23.47;65.45;94382.09;5065646;28;20029;-85
2023/07/17 05:46:04;;;;;;;28.15;11.45;;;;;;;23.51;65.60;94391.84;5066640;28;20063;-86
2023/07/17 05:48:30;;;;;;;23.90;11.77;;;;;;;23.57;65.74;94384.06;5065994;28;20096;-86
2023/07/17 05:50:55;;;;;;;20.17;13.15;;;;;;;23.60;65.31;94392.25;5065626;28;20329;-85
2023/07/17 05:53:21;;;;;;;22.13;11.07;;;;;;;23.65;65.20;94399.28;5065563;28;20017;-85
2023/07/17 05:55:46;;;;;;;27.52;12.63;;;;;;;23.65;65.83;94396.56;5065484;28;20028;-85
2023/07/17 05:58:12;;;;;;;26.75;10.88;;;;;;;23.66;64.94;94384.50;5065633;28;20028;-85
2023/07/17 06:00:38;;;;;;;27.45;10.57;;;;;;;23.75;64.97;94403.19;5065572;28;20025;-86
2023/07/17 06:03:03;;;;;;;18.42;10.82;;;;;;;23.77;63.91;94404.41;5065342;28;20021;-86
2023/07/17 06:05:29;;;;;;;18.27;10.88;;;;;;;23.77;63.65;94398.16;5064300;28;20025;-85
2023/07/17 06:07:54;;;;;;;14.43;9.65;;;;;;;23.78;63.58;94397.03;5065292;28;20096;-85
2023/07/17 06:10:20;;;;;;;29.77;10.50;;;;;;;23.83;63.87;94400.16;5065378;28;20021;-85
2023/07/17 06:12:45;;;;;;;18.60;10.88;;;;;;;23.89;62.94;94399.75;5064327;28;20227;-86
2023/07/17 06:15:13;;;;;;;25.00;11.43;;;;;;;23.89;62.75;94395.09;5063925;28;20024;-85
2023/07/17 06:17:39;;;;;;;29.17;10.90;;;;;;;23.92;63.34;94399.78;5064908;28;20100;-85
2023/07/17 06:20:06;;;;;;;20.58;10.30;;;;;;;23.95;62.77;94400.94;5065022;28;20215;-86
2023/07/17 06:22:32;;;;;;;23.02;11.32;;;;;;;23.99;62.21;94386.16;5065104;28;20039;-86
2023/07/17 06:24:57;;;;;;;27.23;11.43;;;;;;;23.94;63.19;94388.50;5064113;28;20096;-85
2023/07/17 06:27:22;;;;;;;28.42;10.80;;;;;;;24.05;63.25;94400.19;5065044;28;20040;-85
2023/07/17 06:29:48;;;;;;;15.02;9.95;;;;;;;24.24;60.89;94396.31;5065222;28;20258;-85
2023/07/17 06:32:13;;;;;;;25.70;12.13;;;;;;;24.28;60.00;94385.44;5064849;28;20043;-86
2023/07/17 06:34:41;;;;;;;23.15;10.80;;;;;;;24.40;60.64;94382.31;5064836;28;20096;-81
2023/07/17 06:37:07;;;;;;;16.05;9.75;;;;;;;24.55;60.75;94389.38;5064543;28;20315;-81
2023/07/17 06:39:33;;;;;;;27.50;10.50;;;;;;;24.63;59.42;94393.66;5064668;28;20059;-81
2023/07/17 06:41:58;;;;;;;21.52;10.55;;;;;;;24.69;59.97;94388.59;5064620;28;20363;-82
2023/07/17 06:44:24;;;;;;;23.42;11.63;;;;;;;24.58;60.34;94385.84;5063176;28;20070;-81
2023/07/17 06:46:49;;;;;;;23.50;11.38;;;;;;;24.65;59.29;94390.56;5064384;28;20024;-81
2023/07/17 06:49:15;;;;;;;21.45;10.77;;;;;;;24.63;59.29;94382.75;5064549;28;20051;-81
2023/07/17 06:51:41;;;;;;;28.58;11.23;;;;;;;24.68;59.29;94378.84;5064612;28;20062;-82
2023/07/17 06:54:06;;;;;;;19.63;11.65;;;;;;;24.71;59.08;94377.28;5062988;28;20094;-82
2023/07/17 06:56:32;;;;;;;19.13;10.73;;;;;;;24.74;59.13;94380.00;5064148;28;20032;-82
2023/07/17 06:58:57;;;;;;;22.77;11.13;;;;;;;24.82;59.68;94380.78;5063924;28;20067;-81
2023/07/17 07:01:23;;;;;;;26.17;10.23;;;;;;;25.01;59.53;94376.84;5063963;28;20025;-81
2023/07/17 07:03:48;;;;;;;21.08;11.40;;;;;;;25.12;59.10;94387.75;5064595;28;20025;-81
2023/07/17 07:06:14;;;;;;;19.92;10.65;;;;;;;25.20;58.66;94381.88;5064075;28;20029;-81
2023/07/17 07:08:42;;;;;;;17.38;10.00;;;;;;;25.26;59.32;94376.84;5063967;28;20033;-81
2023/07/17 07:11:08;;;;;;;20.00;10.93;;;;;;;25.31;58.34;94373.69;5062941;28;20135;-80
2023/07/17 07:13:34;;;;;;;16.38;11.25;;;;;;;25.32;58.79;94378.00;5063846;28;20073;-81
2023/07/17 07:16:00;;;;;;;24.40;11.30;;;;;;;25.37;58.70;94376.78;5063912;28;20339;-81
2023/07/17 07:18:25;;;;;;;26.85;10.90;;;;;;;25.50;59.36;94385.31;5064031;28;20021;-81
2023/07/17 07:20:54;;;;;;;23.73;11.77;;;;;;;25.51;58.51;94374.00;5063863;28;20045;-81
2023/07/17 07:23:20;;;;;;;26.13;11.13;;;;;;;25.60;57.60;94379.84;5063908;28;20041;-81
2023/07/17 07:25:46;;;;;;;23.80;10.88;;;;;;;25.63;57.34;94370.06;5064018;28;20017;-81
2023/07/17 07:28:12;;;;;;;16.08;9.85;;;;;;;25.68;57.58;94366.13;5062391;28;20024;-81
2023/07/17 07:30:38;;;;;;;18.10;11.38;;;;;;;25.70;57.37;94361.81;5062659;28;20102;-81
2023/07/17 07:33:03;;;;;;;16.35;11.88;;;;;;;25.79;57.04;94370.38;5063837;28;20032;-81
2023/07/17 07:35:29;;;;;;;16.33;11.13;;;;;;;25.86;56.63;94364.09;5063463;28;20024;-81
2023/07/17 07:37:54;;;;;;;21.02;11.45;;;;;;;25.91;57.38;94371.09;5063541;28;20047;-81
2023/07/17 07:40:20;;;;;;;25.88;11.30;;;;;;;25.91;57.05;94365.66;5062302;28;20025;-81
2023/07/17 07:42:46;;;;;;;26.33;11.27;;;;;;;25.97;57.63;94364.84;5063449;28;20021;-81
2023/07/17 07:45:12;;;;;;;20.65;12.65;;;;;;;26.03;56.57;94367.91;5063626;28;20024;-81
2023/07/17 07:47:39;;;;;;;24.98;12.55;;;;;;;26.12;56.70;94351.88;5063528;28;20025;-81
2023/07/17 07:50:05;;;;;;;18.02;11.38;;;;;;;26.09;56.25;94358.13;5063501;28;20091;-81
2023/07/17 07:52:31;;;;;;;20.45;13.00;;;;;;;26.21;55.93;94362.34;5063545;28;20020;-81
2023/07/17 07:54:57;;;;;;;20.17;11.82;;;;;;;26.26;56.12;94358.41;5062125;28;20338;-81
2023/07/17 07:57:22;;;;;;;17.67;12.82;;;;;;;26.28;56.32;94356.06;5063328;28;20314;-81
2023/07/17 07:59:51;;;;;;;25.65;13.27;;;;;;;26.32;56.44;94354.09;5063393;28;20032;-81
2023/07/17 08:02:17;;;;;;;27.63;13.45;;;;;;;26.37;56.57;94359.09;5063126;28;20029;-80
2023/07/17 08:04:43;;;;;;;20.90;11.95;;;;;;;26.37;56.25;94354.41;5063179;28;20044;-80
2023/07/17 08:07:10;;;;;;;26.58;11.27;;;;;;;26.41;57.10;94348.91;5062009;28;20149;-80
2023/07/17 08:09:35;;;;;;;22.58;12.57;;;;;;;26.54;57.18;94360.94;5061984;28;20028;-82
2023/07/17 08:12:02;;;;;;;22.30;11.65;;;;;;;26.68;56.83;94349.09;5063199;28;20047;-79
2023/07/17 08:14:27;;;;;;;18.73;10.85;;;;;;;26.82;56.07;94356.41;5063097;28;20082;-82
2023/07/17 08:16:53;;;;;;;26.52;10.88;;;;;;;26.94;55.11;94353.16;5063088;28;20033;-81
2023/07/17 08:19:19;;;;;;;23.13;12.10;;;;;;;27.07;54.05;94344.44;5063131;28;20029;-84
2023/07/17 08:21:45;;;;;;;21.70;11.38;;;;;;;27.10;54.19;94343.63;5063203;28;20033;-83
2023/07/17 08:24:11;;;;;;;20.08;11.13;;;;;;;27.16;54.23;94345.50;5061893;28;20338;-83
2023/07/17 08:26:40;;;;;;;20.35;11.75;;;;;;;27.19;53.98;94352.09;5062830;28;20132;-81
2023/07/17 08:29:06;;;;;;;23.73;11.95;;;;;;;27.23;54.00;94341.94;5062762;28;20063;-84
2023/07/17 08:31:32;;;;;;;21.98;12.55;;;;;;;27.35;54.61;94351.56;5062774;28;20092;-84
2023/07/17 08:33:59;;;;;;;20.40;12.18;;;;;;;27.45;54.67;94347.94;5062947;28;20025;-84
2023/07/17 08:36:26;;;;;;;25.88;12.43;;;;;;;27.58;53.39;94343.47;5063160;28;20020;-84
2023/07/17 08:38:52;;;;;;;18.35;11.27;;;;;;;27.67;53.23;94340.22;5065155;28;20024;-83
2023/07/17 08:41:18;;;;;;;28.58;12.27;;;;;;;27.66;53.18;94344.16;5063033;28;20028;-84
2023/07/17 08:43:43;;;;;;;19.30;11.13;;;;;;;27.69;53.15;94346.06;5063051;28;20075;-84
2023/07/17 08:46:09;;;;;;;20.00;11.00;;;;;;;27.85;53.18;94345.47;5062836;28;20028;-84
2023/07/17 08:48:35;;;;;;;30.67;12.73;;;;;;;27.98;51.76;94335.50;5066410;28;20074;-84
2023/07/17 08:51:02;;;;;;;36.70;11.63;;;;;;;28.06;52.48;94336.19;5066895;28;20307;-85
2023/07/17 08:53:28;;;;;;;20.88;10.82;;;;;;;28.12;51.51;94345.50;5067063;28;20048;-81
2023/07/17 08:55:54;;;;;;;18.42;10.60;;;;;;;28.19;51.73;94334.44;5066533;28;20036;-82
2023/07/17 08:58:22;;;;;;;19.80;11.60;;;;;;;28.31;51.57;94335.03;5066902;28;20024;-82
2023/07/17 09:00:50;;;;;;;22.17;10.05;;;;;;;28.38;50.79;94334.94;5066673;28;20066;-82
2023/07/17 09:03:15;;;;;;;24.77;10.77;;;;;;;28.41;50.80;94337.63;5066798;28;20087;-82
2023/07/17 09:05:43;;;;;;;25.67;11.15;;;;;;;28.58;50.00;94332.28;5067744;28;20024;-82
2023/07/17 09:08:09;;;;;;;15.77;10.20;;;;;;;28.71;49.61;94326.97;5067758;28;20025;-82
2023/07/17 09:10:36;;;;;;;32.05;11.25;;;;;;;28.76;47.78;94327.28;5067820;28;20098;-80
2023/07/17 09:13:02;;;;;;;16.70;10.20;;;;;;;28.84;46.69;94322.41;5067654;28;20090;-80
2023/07/17 09:15:29;;;;;;;21.42;10.85;;;;;;;28.85;47.16;94323.97;5067250;28;20093;-81
2023/07/17 09:17:55;;;;;;;18.45;9.57;;;;;;;28.91;47.55;94318.78;5067129;28;20028;-81
2023/07/17 09:20:21;;;;;;;25.63;9.70;;;;;;;28.96;45.92;94316.34;5067244;28;20075;-81
2023/07/17 09:22:47;;;;;;;13.90;8.52;;;;;;;29.01;45.88;94315.84;5066795;28;20323;-81
2023/07/17 09:25:13;;;;;;;15.52;9.73;;;;;;;29.10;45.57;94322.72;5067065;28;20134;-81
2023/07/17 09:27:47;;;;;;;17.75;10.07;;;;;;;29.13;46.22;94316.44;5066819;28;20099;-83
2023/07/17 09:30:15;;;;;;;15.55;9.50;;;;;;;29.23;45.59;94320.16;5066659;28;20044;-79
2023/07/17 09:32:41;;;;;;;16.95;8.93;;;;;;;29.36;45.34;94318.34;5065026;28;20024;-80
2023/07/17 09:35:09;;;;;;;14.95;8.65;;;;;;;29.36;44.17;94313.63;5063767;28;20025;-82
2023/07/17 09:37:36;;;;;;;17.55;8.18;;;;;;;29.53;43.69;94311.69;5064578;28;20044;-82
2023/07/17 09:40:13;;;;;;;21.55;9.85;;;;;;;29.68;43.78;94306.69;5065107;28;20017;-81
2023/07/17 09:42:43;;;;;;;15.48;8.75;;;;;;;29.75;43.53;94300.28;5065145;28;20021;-81
2023/07/17 09:45:12;;;;;;;13.35;6.32;;;;;;;29.85;40.98;94302.03;5064983;28;20032;-82
2023/07/17 09:47:39;;;;;;;10.25;7.28;;;;;;;30.02;40.83;94302.81;5065028;28;20088;-83
2023/07/17 09:50:07;;;;;;;9.90;7.07;;;;;;;30.16;39.94;94296.97;5065839;28;20127;-84
2023/07/17 09:52:33;;;;;;;13.13;7.32;;;;;;;30.32;39.64;94298.22;5064706;28;20040;-83
2023/07/17 09:55:01;;;;;;;19.98;6.78;;;;;;;30.46;39.21;94294.34;5063594;28;20044;-82
2023/07/17 09:57:28;;;;;;;10.68;6.50;;;;;;;30.59;39.10;94304.22;5064132;28;20020;-82
2023/07/17 10:00:01;;;;;;;12.45;7.13;;;;;;;30.75;38.38;94299.91;5061480;28;20028;-81
2023/07/17 10:02:40;;;;;;;11.77;6.85;;;;;;;30.88;38.04;94300.00;5064224;28;20230;-82
2023/07/17 10:05:06;;;;;;;14.70;7.55;;;;;;;30.96;36.49;94299.38;5063040;28;20403;-82
2023/07/17 10:07:36;;;;;;;10.77;6.35;;;;;;;30.94;35.71;94296.28;5064239;28;20036;-82
2023/07/17 10:10:01;;;;;;;11.60;6.40;;;;;;;30.98;35.76;94293.44;5065892;28;20025;-82
2023/07/17 10:12:28;;;;;;;7.97;6.10;;;;;;;30.99;36.04;94294.97;5065737;28;20024;-81
2023/07/17 10:14:54;;;;;;;17.58;6.93;;;;;;;31.09;37.01;94299.41;5065606;28;20222;-81
2023/07/17 10:17:34;;;;;;;11.70;6.47;;;;;;;31.16;34.39;94284.66;5065682;28;20024;-81
2023/07/17 10:20:03;;;;;;;17.45;6.80;;;;;;;31.22;33.65;94285.69;5065384;28;20215;-81
2023/07/17 10:22:43;;;;;;;8.00;5.75;;;;;;;31.31;34.80;94288.59;5065441;28;20035;-82
2023/07/17 10:25:10;;;;;;;14.48;7.18;;;;;;;31.48;34.92;94285.78;5065276;28;20045;-82
2023/07/17 10:27:37;;;;;;;14.95;6.30;;;;;;;31.65;35.42;94283.69;5065525;28;20028;-83
2023/07/17 10:30:24;;;;;;;21.95;6.45;;;;;;;31.84;34.59;94279.22;5065511;28;20159;-82
2023/07/17 10:33:14;;;;;;;12.02;6.15;;;;;;;31.98;33.85;94276.78;5065150;28;20033;-82
2023/07/17 10:36:00;;;;;;;12.60;6.03;;;;;;;32.08;34.38;94282.41;5065192;28;20025;-83
2023/07/17 10:38:28;;;;;;;9.75;6.68;;;;;;;32.16;35.08;94273.50;5064712;28;20048;-83
2023/07/17 10:41:16;;;;;;;10.98;7.15;;;;;;;32.29;34.15;94272.72;5064403;28;20366;-82
2023/07/17 10:44:03;;;;;;;12.65;7.18;;;;;;;32.40;33.87;94275.88;5057559;28;20037;-82
2023/07/17 10:46:32;;;;;;;15.80;7.15;;;;;;;32.35;32.67;94268.16;5066591;28;20037;-83
2023/07/17 10:49:12;;;;;;;12.43;6.40;;;;;;;32.41;33.68;94266.38;5064948;28;20078;-82
2023/07/17 10:51:45;;;;;;;15.98;6.85;;;;;;;32.50;33.75;94269.22;5064021;28;20025;-82
2023/07/17 10:54:15;;;;;;;11.38;6.90;;;;;;;32.61;33.57;94262.59;5064255;28;20045;-82
2023/07/17 10:56:43;;;;;;;11.00;6.95;;;;;;;32.64;33.02;94261.72;5064134;28;20092;-82
2023/07/17 10:59:09;;;;;;;19.80;6.78;;;;;;;32.72;33.45;94261.03;5064115;28;20020;-82
2023/07/17 11:01:35;;;;;;;13.70;6.78;;;;;;;32.81;33.52;94249.28;5063889;28;20029;-82
2023/07/17 11:04:01;;;;;;;13.50;6.57;;;;;;;32.93;32.88;94262.28;5062728;28;20029;-80
2023/07/17 11:06:27;;;;;;;16.10;8.05;;;;;;;33.08;32.63;94261.78;5063885;28;20017;-81
2023/07/17 11:08:54;;;;;;;11.65;6.35;;;;;;;33.07;30.20;94258.22;5063695;28;20028;-81
2023/07/17 11:11:20;;;;;;;11.57;6.68;;;;;;;33.08;30.60;94256.25;5063226;28;20013;-81
2023/07/17 11:13:46;;;;;;;16.75;5.93;;;;;;;33.01;30.63;94251.75;5063952;28;20259;-81
2023/07/17 11:16:12;;;;;;;10.70;5.28;;;;;;;32.97;30.75;94251.88;5063931;28;20024;-81
2023/07/17 11:18:49;;;;;;;16.67;6.22;;;;;;;33.02;32.11;94247.00;5064011;28;20101;-81
2023/07/17 11:21:16;;;;;;;17.52;6.30;;;;;;;33.06;30.09;94242.13;5063865;28;20028;-82